sensor_id;sensor_type;location;lat;lon;timestamp;pressure;altitude;pressure_sealevel;temperature;humidity
6938;BME280;40040;42.706;23.372;2022-10-16T00:01:48;146445.44;;;9.21;100.00
6938;BME280;40040;42.706;23.372;2022-10-16T00:04:16;146436.84;;;9.18;100.00
6938;BME280;40040;42.706;23.372;2022-10-16T00:06:43;146386.31;;;8.97;100.00
6938;BME280;40040;42.706;23.372;2022-10-16T00:09:10;146348.13;;;8.81;100.00
6938;BME280;40040;42.706;23.372;2022-10-16T00:11:39;146385.06;;;8.96;100.00
6938;BME280;40040;42.706;23.372;2022-10-16T00:14:09;146413.44;;;9.08;100.00
6938;BME280;40040;42.706;23.372;2022-10-16T00:16:36;146425.75;;;9.13;100.00
6938;BME280;40040;42.706;23.372;2022-10-16T00:19:04;146428.19;;;9.14;100.00
6938;BME280;40040;42.706;23.372;2022-10-16T00:21:33;146365.38;;;8.88;100.00
6938;BME280;40040;42.706;23.372;2022-10-16T00:24:02;146403.56;;;9.04;100.00
6938;BME280;40040;42.706;23.372;2022-10-16T00:26:33;146404.81;;;9.04;100.00
6938;BME280;40040;42.706;23.372;2022-10-16T00:29:00;146394.94;;;9.00;100.00
6938;BME280;40040;42.706;23.372;2022-10-16T00:31:27;146394.94;;;9.00;100.00
6938;BME280;40040;42.706;23.372;2022-10-16T00:33:55;146394.94;;;9.00;100.00
6938;BME280;40040;42.706;23.372;2022-10-16T00:36:23;146303.75;;;8.63;100.00
6938;BME280;40040;42.706;23.372;2022-10-16T00:38:53;146362.88;;;8.87;100.00
6938;BME280;40040;42.706;23.372;2022-10-16T00:41:21;146366.63;;;8.89;100.00
6938;BME280;40040;42.706;23.372;2022-10-16T00:43:49;146271.75;;;8.50;100.00
6938;BME280;40040;42.706;23.372;2022-10-16T00:46:20;146367.81;;;8.89;100.00
6938;BME280;40040;42.706;23.372;2022-10-16T00:48:50;146371.50;;;8.91;100.00
6938;BME280;40040;42.706;23.372;2022-10-16T00:51:22;146364.13;;;8.88;100.00
6938;BME280;40040;42.706;23.372;2022-10-16T00:53:51;146360.44;;;8.86;100.00
6938;BME280;40040;42.706;23.372;2022-10-16T00:56:18;146354.25;;;8.84;100.00
6938;BME280;40040;42.706;23.372;2022-10-16T00:58:45;146303.75;;;8.63;100.00
6938;BME280;40040;42.706;23.372;2022-10-16T01:01:13;146339.50;;;8.78;100.00
6938;BME280;40040;42.706;23.372;2022-10-16T01:03:40;146222.47;;;8.30;100.00
6938;BME280;40040;42.706;23.372;2022-10-16T01:06:23;146311.19;;;8.66;100.00
6938;BME280;40040;42.706;23.372;2022-10-16T01:09:06;146254.50;;;8.43;100.00
6938;BME280;40040;42.706;23.372;2022-10-16T01:11:38;146293.94;;;8.59;100.00
6938;BME280;40040;42.706;23.372;2022-10-16T01:14:13;146203.97;;;8.23;100.00
6938;BME280;40040;42.706;23.372;2022-10-16T01:16:45;146247.13;;;8.40;100.00
6938;BME280;40040;42.706;23.372;2022-10-16T01:19:20;146184.25;;;8.15;100.00
6938;BME280;40040;42.706;23.372;2022-10-16T01:21:53;146254.50;;;8.43;100.00
6938;BME280;40040;42.706;23.372;2022-10-16T01:24:30;146265.56;;;8.48;100.00
6938;BME280;40040;42.706;23.372;2022-10-16T01:27:11;146234.78;;;8.35;100.00
6938;BME280;40040;42.706;23.372;2022-10-16T01:29:44;146079.63;;;7.72;100.00
6938;BME280;40040;42.706;23.372;2022-10-16T01:32:18;146236.03;;;8.36;100.00
6938;BME280;40040;42.706;23.372;2022-10-16T01:34:49;146245.88;;;8.40;100.00
6938;BME280;40040;42.706;23.372;2022-10-16T01:37:35;146249.56;;;8.41;100.00
6938;BME280;40040;42.706;23.372;2022-10-16T01:40:07;146244.66;;;8.39;100.00
6938;BME280;40040;42.706;23.372;2022-10-16T01:42:38;146202.72;;;8.22;100.00
6938;BME280;40040;42.706;23.372;2022-10-16T01:45:08;146222.47;;;8.30;100.00
6938;BME280;40040;42.706;23.372;2022-10-16T01:47:39;146238.50;;;8.37;100.00
6938;BME280;40040;42.706;23.372;2022-10-16T01:50:08;146220.03;;;8.29;100.00
6938;BME280;40040;42.706;23.372;2022-10-16T01:52:39;146197.81;;;8.20;100.00
6938;BME280;40040;42.706;23.372;2022-10-16T01:55:09;146183.03;;;8.14;100.00
6938;BME280;40040;42.706;23.372;2022-10-16T01:57:41;146178.13;;;8.12;100.00
6938;BME280;40040;42.706;23.372;2022-10-16T02:00:12;146173.19;;;8.10;100.00
6938;BME280;40040;42.706;23.372;2022-10-16T02:02:42;146173.19;;;8.10;100.00
6938;BME280;40040;42.706;23.372;2022-10-16T02:05:15;146163.31;;;8.06;100.00
6938;BME280;40040;42.706;23.372;2022-10-16T02:07:44;146181.81;;;8.14;100.00
6938;BME280;40040;42.706;23.372;2022-10-16T02:10:11;146180.56;;;8.13;100.00
6938;BME280;40040;42.706;23.372;2022-10-16T02:12:42;146186.72;;;8.16;100.00
6938;BME280;40040;42.706;23.372;2022-10-16T02:15:11;146185.50;;;8.15;100.00
6938;BME280;40040;42.706;23.372;2022-10-16T02:17:37;146181.81;;;8.14;100.00
6938;BME280;40040;42.706;23.372;2022-10-16T02:20:05;146178.13;;;8.12;100.00
6938;BME280;40040;42.706;23.372;2022-10-16T02:22:36;146174.44;;;8.11;100.00
6938;BME280;40040;42.706;23.372;2022-10-16T02:25:07;146164.56;;;8.07;100.00
6938;BME280;40040;42.706;23.372;2022-10-16T02:27:40;146163.31;;;8.06;100.00
6938;BME280;40040;42.706;23.372;2022-10-16T02:30:12;146160.88;;;8.05;100.00
6938;BME280;40040;42.706;23.372;2022-10-16T02:32:41;146151.00;;;8.01;100.00
6938;BME280;40040;42.706;23.372;2022-10-16T02:35:09;146137.47;;;7.95;100.00
6938;BME280;40040;42.706;23.372;2022-10-16T02:37:38;146133.78;;;7.94;100.00
6938;BME280;40040;42.706;23.372;2022-10-16T02:40:07;146116.53;;;7.87;100.00
6938;BME280;40040;42.706;23.372;2022-10-16T02:42:36;146025.44;;;7.50;100.00
6938;BME280;40040;42.706;23.372;2022-10-16T02:45:06;146096.84;;;7.79;100.00
6938;BME280;40040;42.706;23.372;2022-10-16T02:47:33;146089.44;;;7.76;100.00
6938;BME280;40040;42.706;23.372;2022-10-16T02:50:00;146074.69;;;7.70;100.00
6938;BME280;40040;42.706;23.372;2022-10-16T02:52:27;145978.69;;;7.31;100.00
6938;BME280;40040;42.706;23.372;2022-10-16T02:54:54;146037.78;;;7.55;100.00
6938;BME280;40040;42.706;23.372;2022-10-16T02:57:21;146074.69;;;7.70;100.00
6938;BME280;40040;42.706;23.372;2022-10-16T02:59:47;145999.59;;;7.39;100.00
6938;BME280;40040;42.706;23.372;2022-10-16T03:02:16;145931.94;;;7.12;100.00
6938;BME280;40040;42.706;23.372;2022-10-16T03:04:42;145994.72;;;7.37;100.00
6938;BME280;40040;42.706;23.372;2022-10-16T03:07:09;146052.53;;;7.61;100.00
6938;BME280;40040;42.706;23.372;2022-10-16T03:09:36;145931.94;;;7.12;100.00
6938;BME280;40040;42.706;23.372;2022-10-16T03:12:03;145977.47;;;7.30;100.00
6938;BME280;40040;42.706;23.372;2022-10-16T03:14:30;146035.28;;;7.54;100.00
6938;BME280;40040;42.706;23.372;2022-10-16T03:16:57;146015.63;;;7.46;100.00
6938;BME280;40040;42.706;23.372;2022-10-16T03:19:25;146013.13;;;7.45;100.00
6938;BME280;40040;42.706;23.372;2022-10-16T03:21:52;145882.75;;;6.92;100.00
6938;BME280;40040;42.706;23.372;2022-10-16T03:24:19;145986.09;;;7.34;100.00
6938;BME280;40040;42.706;23.372;2022-10-16T03:26:46;145970.06;;;7.27;100.00
6938;BME280;40040;42.706;23.372;2022-10-16T03:29:12;145966.38;;;7.26;100.00
6938;BME280;40040;42.706;23.372;2022-10-16T03:31:39;145959.00;;;7.23;100.00
6938;BME280;40040;42.706;23.372;2022-10-16T03:34:06;145941.78;;;7.16;100.00
6938;BME280;40040;42.706;23.372;2022-10-16T03:36:34;145843.38;;;6.75;100.00
6938;BME280;40040;42.706;23.372;2022-10-16T03:39:02;145922.13;;;7.08;100.00
6938;BME280;40040;42.706;23.372;2022-10-16T03:41:29;145933.16;;;7.12;100.00
6938;BME280;40040;42.706;23.372;2022-10-16T03:43:55;145928.25;;;7.10;100.00
6938;BME280;40040;42.706;23.372;2022-10-16T03:46:22;145934.41;;;7.13;100.00
6938;BME280;40040;42.706;23.372;2022-10-16T03:48:49;145822.47;;;6.67;100.00
6938;BME280;40040;42.706;23.372;2022-10-16T03:51:16;145907.34;;;7.02;100.00
6938;BME280;40040;42.706;23.372;2022-10-16T03:53:44;145938.09;;;7.14;100.00
6938;BME280;40040;42.706;23.372;2022-10-16T03:56:11;145933.16;;;7.12;100.00
6938;BME280;40040;42.706;23.372;2022-10-16T03:58:38;145930.72;;;7.11;100.00
6938;BME280;40040;42.706;23.372;2022-10-16T04:01:05;145935.59;;;7.13;100.00
6938;BME280;40040;42.706;23.372;2022-10-16T04:03:31;145934.41;;;7.13;100.00
6938;BME280;40040;42.706;23.372;2022-10-16T04:05:58;145924.56;;;7.09;100.00
6938;BME280;40040;42.706;23.372;2022-10-16T04:08:25;145917.19;;;7.06;100.00
6938;BME280;40040;42.706;23.372;2022-10-16T04:10:53;145915.94;;;7.05;100.00
6938;BME280;40040;42.706;23.372;2022-10-16T04:13:20;145903.66;;;7.00;100.00
6938;BME280;40040;42.706;23.372;2022-10-16T04:15:47;145890.09;;;6.95;100.00
6938;BME280;40040;42.706;23.372;2022-10-16T04:18:14;145880.25;;;6.91;100.00
6938;BME280;40040;42.706;23.372;2022-10-16T04:20:40;145882.75;;;6.92;100.00
6938;BME280;40040;42.706;23.372;2022-10-16T04:23:07;145888.88;;;6.94;100.00
6938;BME280;40040;42.706;23.372;2022-10-16T04:25:34;145890.09;;;6.95;100.00
6938;BME280;40040;42.706;23.372;2022-10-16T04:28:03;145892.59;;;6.96;100.00
6938;BME280;40040;42.706;23.372;2022-10-16T04:30:29;145888.88;;;6.94;100.00
6938;BME280;40040;42.706;23.372;2022-10-16T04:32:56;145769.56;;;6.45;100.00
6938;BME280;40040;42.706;23.372;2022-10-16T04:35:23;145885.19;;;6.93;100.00
6938;BME280;40040;42.706;23.372;2022-10-16T04:37:50;145877.81;;;6.90;100.00
6938;BME280;40040;42.706;23.372;2022-10-16T04:40:17;145880.25;;;6.91;100.00
6938;BME280;40040;42.706;23.372;2022-10-16T04:42:44;145683.50;;;6.10;100.00
6938;BME280;40040;42.706;23.372;2022-10-16T04:45:12;145858.16;;;6.81;100.00
6938;BME280;40040;42.706;23.372;2022-10-16T04:47:39;145845.81;;;6.76;100.00
6938;BME280;40040;42.706;23.372;2022-10-16T04:50:06;145715.47;;;6.23;100.00
6938;BME280;40040;42.706;23.372;2022-10-16T04:52:33;145866.75;;;6.85;100.00
6938;BME280;40040;42.706;23.372;2022-10-16T04:55:01;145804.00;;;6.59;100.00
6938;BME280;40040;42.706;23.372;2022-10-16T04:57:28;145790.47;;;6.54;100.00
6938;BME280;40040;42.706;23.372;2022-10-16T04:59:55;145673.69;;;6.06;100.00
6938;BME280;40040;42.706;23.372;2022-10-16T05:02:24;145869.19;;;6.86;100.00
6938;BME280;40040;42.706;23.372;2022-10-16T05:04:51;145850.72;;;6.78;100.00
6938;BME280;40040;42.706;23.372;2022-10-16T05:07:18;145774.50;;;6.47;100.00
6938;BME280;40040;42.706;23.372;2022-10-16T05:09:45;145850.72;;;6.78;100.00
6938;BME280;40040;42.706;23.372;2022-10-16T05:12:13;145866.75;;;6.85;100.00
6938;BME280;40040;42.706;23.372;2022-10-16T05:14:40;145838.44;;;6.73;100.00
6938;BME280;40040;42.706;23.372;2022-10-16T05:17:07;145826.16;;;6.68;100.00
6938;BME280;40040;42.706;23.372;2022-10-16T05:19:36;145874.13;;;6.88;100.00
6938;BME280;40040;42.706;23.372;2022-10-16T05:22:03;145901.16;;;6.99;100.00
6938;BME280;40040;42.706;23.372;2022-10-16T05:24:30;145917.19;;;7.06;100.00
6938;BME280;40040;42.706;23.372;2022-10-16T05:26:58;145904.88;;;7.01;100.00
6938;BME280;40040;42.706;23.372;2022-10-16T05:29:25;145876.56;;;6.89;100.00
6938;BME280;40040;42.706;23.372;2022-10-16T05:31:53;145940.53;;;7.15;100.00
6938;BME280;40040;42.706;23.372;2022-10-16T05:34:20;145944.22;;;7.17;100.00
6938;BME280;40040;42.706;23.372;2022-10-16T05:36:51;145882.75;;;6.92;100.00
6938;BME280;40040;42.706;23.372;2022-10-16T05:39:21;145961.44;;;7.24;100.00
6938;BME280;40040;42.706;23.372;2022-10-16T05:41:51;145895.03;;;6.97;100.00
6938;BME280;40040;42.706;23.372;2022-10-16T05:44:18;145928.25;;;7.10;100.00
6938;BME280;40040;42.706;23.372;2022-10-16T05:46:46;146004.53;;;7.41;100.00
6938;BME280;40040;42.706;23.372;2022-10-16T05:49:18;145792.94;;;6.55;100.00
6938;BME280;40040;42.706;23.372;2022-10-16T05:51:45;145951.63;;;7.20;100.00
6938;BME280;40040;42.706;23.372;2022-10-16T05:54:32;146059.91;;;7.64;100.00
6938;BME280;40040;42.706;23.372;2022-10-16T05:57:14;145941.78;;;7.16;100.00
6938;BME280;40040;42.706;23.372;2022-10-16T05:59:41;146062.41;;;7.65;100.00
6938;BME280;40040;42.706;23.372;2022-10-16T06:02:14;146105.47;;;7.82;100.00
6938;BME280;40040;42.706;23.372;2022-10-16T06:04:41;146096.84;;;7.79;100.00
6938;BME280;40040;42.706;23.372;2022-10-16T06:07:08;146116.53;;;7.87;100.00
6938;BME280;40040;42.706;23.372;2022-10-16T06:10:01;146168.25;;;8.08;100.00
6938;BME280;40040;42.706;23.372;2022-10-16T06:12:29;146191.63;;;8.18;100.00
6938;BME280;40040;42.706;23.372;2022-10-16T06:14:56;146223.72;;;8.31;100.00
6938;BME280;40040;42.706;23.372;2022-10-16T06:17:23;146242.19;;;8.38;100.00
6938;BME280;40040;42.706;23.372;2022-10-16T06:19:54;146255.75;;;8.44;100.00
6938;BME280;40040;42.706;23.372;2022-10-16T06:22:21;146157.19;;;8.04;100.00
6938;BME280;40040;42.706;23.372;2022-10-16T06:24:48;146322.25;;;8.71;100.00
6938;BME280;40040;42.706;23.372;2022-10-16T06:27:16;146212.66;;;8.26;100.00
6938;BME280;40040;42.706;23.372;2022-10-16T06:29:45;146239.72;;;8.37;100.00
6938;BME280;40040;42.706;23.372;2022-10-16T06:32:22;146271.75;;;8.50;100.00
6938;BME280;40040;42.706;23.372;2022-10-16T06:35:07;146426.94;;;9.13;100.00
6938;BME280;40040;42.706;23.372;2022-10-16T06:37:37;146422.06;;;9.12;100.00
6938;BME280;40040;42.706;23.372;2022-10-16T06:40:04;146445.44;;;9.21;100.00
6938;BME280;40040;42.706;23.372;2022-10-16T06:42:34;146461.47;;;9.28;100.00
6938;BME280;40040;42.706;23.372;2022-10-16T06:45:01;146552.69;;;9.65;100.00
6938;BME280;40040;42.706;23.372;2022-10-16T06:47:32;146426.94;;;9.13;100.00
6938;BME280;40040;42.706;23.372;2022-10-16T06:49:59;146483.66;;;9.37;100.00
6938;BME280;40040;42.706;23.372;2022-10-16T06:52:27;146557.63;;;9.67;100.00
6938;BME280;40040;42.706;23.372;2022-10-16T06:54:54;146547.75;;;9.63;100.00
6938;BME280;40040;42.706;23.372;2022-10-16T06:57:21;146657.53;;;10.07;100.00
6938;BME280;40040;42.706;23.372;2022-10-16T06:59:49;146678.53;;;10.16;100.00
6938;BME280;40040;42.706;23.372;2022-10-16T07:02:16;146602.03;;;9.85;100.00
6938;BME280;40040;42.706;23.372;2022-10-16T07:04:43;146666.22;;;10.11;100.00
6938;BME280;40040;42.706;23.372;2022-10-16T07:07:10;146656.28;;;10.07;100.00
6938;BME280;40040;42.706;23.372;2022-10-16T07:09:36;146750.06;;;10.45;100.00
6938;BME280;40040;42.706;23.372;2022-10-16T07:12:04;146710.59;;;10.29;100.00
6938;BME280;40040;42.706;23.372;2022-10-16T07:14:31;146710.59;;;10.29;100.00
6938;BME280;40040;42.706;23.372;2022-10-16T07:16:59;146832.75;;;10.79;100.00
6938;BME280;40040;42.706;23.372;2022-10-16T07:19:26;146809.28;;;10.69;100.00
6938;BME280;40040;42.706;23.372;2022-10-16T07:21:53;146895.66;;;11.04;100.00
6938;BME280;40040;42.706;23.372;2022-10-16T07:24:20;146869.75;;;10.94;100.00
6938;BME280;40040;42.706;23.372;2022-10-16T07:26:47;146857.41;;;10.89;100.00
6938;BME280;40040;42.706;23.372;2022-10-16T07:29:15;146887.03;;;11.01;100.00
6938;BME280;40040;42.706;23.372;2022-10-16T07:31:43;147016.66;;;11.54;100.00
6938;BME280;40040;42.706;23.372;2022-10-16T07:34:13;146931.47;;;11.19;100.00
6938;BME280;40040;42.706;23.372;2022-10-16T07:36:40;147040.09;;;11.63;100.00
6938;BME280;40040;42.706;23.372;2022-10-16T07:39:07;147012.97;;;11.52;100.00
6938;BME280;40040;42.706;23.372;2022-10-16T07:41:34;146917.91;;;11.13;100.00
6938;BME280;40040;42.706;23.372;2022-10-16T07:44:02;147103.16;;;11.89;100.00
6938;BME280;40040;42.706;23.372;2022-10-16T07:46:30;146996.88;;;11.46;100.00
6938;BME280;40040;42.706;23.372;2022-10-16T07:48:58;147098.19;;;11.87;100.00
6938;BME280;40040;42.706;23.372;2022-10-16T07:51:33;147147.59;;;12.07;100.00
6938;BME280;40040;42.706;23.372;2022-10-16T07:54:00;147158.72;;;12.11;100.00
6938;BME280;40040;42.706;23.372;2022-10-16T07:56:27;147281.00;;;12.61;100.00
6938;BME280;40040;42.706;23.372;2022-10-16T07:58:54;147303.25;;;12.70;100.00
6938;BME280;40040;42.706;23.372;2022-10-16T08:01:21;147266.22;;;12.55;100.00
6938;BME280;40040;42.706;23.372;2022-10-16T08:03:50;147234.06;;;12.42;100.00
6938;BME280;40040;42.706;23.372;2022-10-16T08:06:18;147315.63;;;12.75;100.00
6938;BME280;40040;42.706;23.372;2022-10-16T08:09:03;147219.25;;;12.36;100.00
6938;BME280;40040;42.706;23.372;2022-10-16T08:11:35;147248.91;;;12.48;100.00
6938;BME280;40040;42.706;23.372;2022-10-16T08:14:02;147369.97;;;12.97;100.00
6938;BME280;40040;42.706;23.372;2022-10-16T08:16:28;147365.06;;;12.95;100.00
6938;BME280;40040;42.706;23.372;2022-10-16T08:18:55;147476.38;;;13.40;100.00
6938;BME280;40040;42.706;23.372;2022-10-16T08:21:23;147444.22;;;13.27;100.00
6938;BME280;40040;42.706;23.372;2022-10-16T08:23:50;147523.38;;;13.60;100.00
6938;BME280;40040;42.706;23.372;2022-10-16T08:26:18;147467.72;;;13.37;100.00
6938;BME280;40040;42.706;23.372;2022-10-16T08:28:49;147619.81;;;13.99;100.00
6938;BME280;40040;42.706;23.372;2022-10-16T08:31:16;147723.78;;;14.41;98.61
6938;BME280;40040;42.706;23.372;2022-10-16T08:33:44;147718.84;;;14.39;95.46
6938;BME280;40040;42.706;23.372;2022-10-16T08:36:12;147725.06;;;14.41;91.71
6938;BME280;40040;42.706;23.372;2022-10-16T08:38:40;147755.94;;;14.54;91.54
6938;BME280;40040;42.706;23.372;2022-10-16T08:44:30;147825.25;;;14.82;88.96
6938;BME280;40040;42.706;23.372;2022-10-16T08:47:13;147897.09;;;15.11;87.66
6938;BME280;40040;42.706;23.372;2022-10-16T08:49:55;148063.06;;;15.78;85.68
6938;BME280;40040;42.706;23.372;2022-10-16T08:52:27;148127.47;;;16.05;82.49
6938;BME280;40040;42.706;23.372;2022-10-16T08:54:56;148102.72;;;15.95;80.05
6938;BME280;40040;42.706;23.372;2022-10-16T08:57:26;148210.50;;;16.38;80.18
6938;BME280;40040;42.706;23.372;2022-10-16T08:59:53;148184.47;;;16.28;79.75
6938;BME280;40040;42.706;23.372;2022-10-16T09:02:31;148284.88;;;16.68;76.49
6938;BME280;40040;42.706;23.372;2022-10-16T09:05:16;148328.25;;;16.86;76.79
6938;BME280;40040;42.706;23.372;2022-10-16T09:07:52;148270.03;;;16.62;75.71
6938;BME280;40040;42.706;23.372;2022-10-16T09:10:32;148372.91;;;17.04;75.13
6938;BME280;40040;42.706;23.372;2022-10-16T09:13:17;148443.59;;;17.33;73.37
6938;BME280;40040;42.706;23.372;2022-10-16T09:15:48;148434.91;;;17.29;72.74
6938;BME280;40040;42.706;23.372;2022-10-16T09:18:24;148606.13;;;17.98;70.11
6938;BME280;40040;42.706;23.372;2022-10-16T09:20:55;148568.91;;;17.83;69.42
6938;BME280;40040;42.706;23.372;2022-10-16T09:23:27;148590.00;;;17.92;68.55
6938;BME280;40040;42.706;23.372;2022-10-16T09:25:55;148653.25;;;18.18;69.22
6938;BME280;40040;42.706;23.372;2022-10-16T09:28:26;148539.09;;;17.71;68.29
6938;BME280;40040;42.706;23.372;2022-10-16T09:30:52;148668.13;;;18.24;68.06
6938;BME280;40040;42.706;23.372;2022-10-16T09:33:23;148828.28;;;18.88;67.04
6938;BME280;40040;42.706;23.372;2022-10-16T09:35:53;148952.50;;;19.39;66.52
6938;BME280;40040;42.706;23.372;2022-10-16T09:38:23;149005.91;;;19.60;64.58
6938;BME280;40040;42.706;23.372;2022-10-16T09:40:50;148899.06;;;19.17;64.65
6938;BME280;40040;42.706;23.372;2022-10-16T09:43:23;149130.13;;;20.10;63.95
6938;BME280;40040;42.706;23.372;2022-10-16T09:45:59;149224.59;;;20.49;61.89
6938;BME280;40040;42.706;23.372;2022-10-16T09:48:30;149172.41;;;20.28;61.95
6938;BME280;40040;42.706;23.372;2022-10-16T09:50:59;149376.31;;;21.10;60.59
6938;BME280;40040;42.706;23.372;2022-10-16T09:53:39;149417.38;;;21.27;59.13
6938;BME280;40040;42.706;23.372;2022-10-16T09:56:07;149518.06;;;21.67;58.94
6938;BME280;40040;42.706;23.372;2022-10-16T09:58:38;149538.00;;;21.75;58.94
6938;BME280;40040;42.706;23.372;2022-10-16T10:01:13;149627.59;;;22.11;56.89
6938;BME280;40040;42.706;23.372;2022-10-16T10:03:42;149597.75;;;21.99;57.73
6938;BME280;40040;42.706;23.372;2022-10-16T10:06:23;149495.72;;;21.58;57.10
6938;BME280;40040;42.706;23.372;2022-10-16T10:08:56;149552.94;;;21.81;57.81
6938;BME280;40040;42.706;23.372;2022-10-16T10:11:41;149569.16;;;21.88;58.29
6938;BME280;40040;42.706;23.372;2022-10-16T10:14:15;149648.75;;;22.20;57.14
6938;BME280;40040;42.706;23.372;2022-10-16T10:16:44;149730.88;;;22.53;55.96
6938;BME280;40040;42.706;23.372;2022-10-16T10:19:15;149694.81;;;22.39;54.52
6938;BME280;40040;42.706;23.372;2022-10-16T10:21:42;149895.22;;;23.19;54.77
6938;BME280;40040;42.706;23.372;2022-10-16T10:24:11;150017.31;;;23.69;52.37
6938;BME280;40040;42.706;23.372;2022-10-16T10:26:38;149819.31;;;22.89;53.58
6938;BME280;40040;42.706;23.372;2022-10-16T10:29:12;149820.53;;;22.89;55.05
6938;BME280;40040;42.706;23.372;2022-10-16T10:31:47;149994.91;;;23.60;52.59
6938;BME280;40040;42.706;23.372;2022-10-16T10:34:39;150058.41;;;23.85;51.67
6938;BME280;40040;42.706;23.372;2022-10-16T10:37:20;150134.47;;;24.16;49.93
6938;BME280;40040;42.706;23.372;2022-10-16T10:39:55;150175.56;;;24.32;49.80
6938;BME280;40040;42.706;23.372;2022-10-16T10:42:30;150232.88;;;24.56;49.80
6938;BME280;40040;42.706;23.372;2022-10-16T10:45:16;150205.47;;;24.44;49.43
6938;BME280;40040;42.706;23.372;2022-10-16T10:48:02;150094.59;;;24.00;49.74
6938;BME280;40040;42.706;23.372;2022-10-16T10:50:38;149814.31;;;22.87;50.68
6938;BME280;40040;42.706;23.372;2022-10-16T10:53:12;149781.94;;;22.74;51.83
6938;BME280;40040;42.706;23.372;2022-10-16T10:55:46;149796.91;;;22.80;51.51
6938;BME280;40040;42.706;23.372;2022-10-16T10:58:34;149801.88;;;22.82;52.58
6938;BME280;40040;42.706;23.372;2022-10-16T11:01:08;149833.00;;;22.94;51.89
6938;BME280;40040;42.706;23.372;2022-10-16T11:03:53;149922.69;;;23.30;50.02
6938;BME280;40040;42.706;23.372;2022-10-16T11:06:26;149963.75;;;23.47;50.11
6938;BME280;40040;42.706;23.372;2022-10-16T11:08:59;149779.47;;;22.73;51.34
6938;BME280;40040;42.706;23.372;2022-10-16T11:11:32;149887.78;;;23.16;50.76
6938;BME280;40040;42.706;23.372;2022-10-16T11:14:05;150033.50;;;23.75;50.99
6938;BME280;40040;42.706;23.372;2022-10-16T11:16:35;150156.91;;;24.25;48.58
6938;BME280;40040;42.706;23.372;2022-10-16T11:19:11;150058.41;;;23.85;47.68
6938;BME280;40040;42.706;23.372;2022-10-16T11:21:44;150242.88;;;24.60;47.47
6938;BME280;40040;42.706;23.372;2022-10-16T11:24:20;150225.44;;;24.52;47.59
6938;BME280;40040;42.706;23.372;2022-10-16T11:26:49;150174.34;;;24.32;46.25
6938;BME280;40040;42.706;23.372;2022-10-16T11:29:23;150276.56;;;24.73;46.77
6938;BME280;40040;42.706;23.372;2022-10-16T11:31:56;150367.56;;;25.10;45.30
6938;BME280;40040;42.706;23.372;2022-10-16T11:34:29;150340.09;;;24.99;44.43
6938;BME280;40040;42.706;23.372;2022-10-16T11:37:09;150451.13;;;25.43;43.90
6938;BME280;40040;42.706;23.372;2022-10-16T11:39:38;150514.72;;;25.69;43.60
6938;BME280;40040;42.706;23.372;2022-10-16T11:42:10;150554.63;;;25.85;42.24
6938;BME280;40040;42.706;23.372;2022-10-16T11:44:46;150552.13;;;25.84;41.17
6938;BME280;40040;42.706;23.372;2022-10-16T11:47:27;150539.66;;;25.79;41.37
6938;BME280;40040;42.706;23.372;2022-10-16T11:50:02;150632.00;;;26.16;40.26
6938;BME280;40040;42.706;23.372;2022-10-16T11:52:36;150572.09;;;25.92;40.80
6938;BME280;40040;42.706;23.372;2022-10-16T11:55:15;150446.16;;;25.41;42.26
6938;BME280;40040;42.706;23.372;2022-10-16T11:57:46;150529.66;;;25.75;42.67
6938;BME280;40040;42.706;23.372;2022-10-16T12:00:21;150328.91;;;24.94;42.36
6938;BME280;40040;42.706;23.372;2022-10-16T12:02:56;150237.88;;;24.58;43.43
6938;BME280;40040;42.706;23.372;2022-10-16T12:05:35;150094.59;;;24.00;43.73
6938;BME280;40040;42.706;23.372;2022-10-16T12:08:10;150055.94;;;23.84;45.04
6938;BME280;40040;42.706;23.372;2022-10-16T12:10:38;150023.53;;;23.71;44.35
6938;BME280;40040;42.706;23.372;2022-10-16T12:13:29;149993.63;;;23.59;46.81
6938;BME280;40040;42.706;23.372;2022-10-16T12:16:05;149958.78;;;23.45;44.61
6938;BME280;40040;42.706;23.372;2022-10-16T12:18:32;150088.28;;;23.97;44.20
6938;BME280;40040;42.706;23.372;2022-10-16T12:21:00;150150.66;;;24.22;44.15
6938;BME280;40040;42.706;23.372;2022-10-16T12:23:32;150188.00;;;24.37;44.53
6938;BME280;40040;42.706;23.372;2022-10-16T12:26:03;150160.63;;;24.26;44.92
6938;BME280;40040;42.706;23.372;2022-10-16T12:28:31;150173.09;;;24.31;42.95
6938;BME280;40040;42.706;23.372;2022-10-16T12:31:01;150217.97;;;24.49;43.17
6938;BME280;40040;42.706;23.372;2022-10-16T12:33:30;150120.75;;;24.10;42.40
6938;BME280;40040;42.706;23.372;2022-10-16T12:36:01;150292.75;;;24.80;42.47
6938;BME280;40040;42.706;23.372;2022-10-16T12:38:32;150251.59;;;24.63;41.61
6938;BME280;40040;42.706;23.372;2022-10-16T12:41:03;150206.72;;;24.45;43.16
6938;BME280;40040;42.706;23.372;2022-10-16T12:43:38;150156.91;;;24.25;41.83
6938;BME280;40040;42.706;23.372;2022-10-16T12:46:22;150114.50;;;24.08;44.46
6938;BME280;40040;42.706;23.372;2022-10-16T12:48:49;149977.47;;;23.53;42.01
6938;BME280;40040;42.706;23.372;2022-10-16T12:51:32;149948.84;;;23.41;42.82
6938;BME280;40040;42.706;23.372;2022-10-16T12:54:00;149956.28;;;23.44;43.50
6938;BME280;40040;42.706;23.372;2022-10-16T12:56:36;149856.66;;;23.04;42.18
6938;BME280;40040;42.706;23.372;2022-10-16T13:01:52;149806.88;;;22.84;44.12
6938;BME280;40040;42.706;23.372;2022-10-16T13:04:34;149752.06;;;22.62;44.42
6938;BME280;40040;42.706;23.372;2022-10-16T13:07:19;149708.47;;;22.44;45.85
6938;BME280;40040;42.706;23.372;2022-10-16T13:09:57;149732.13;;;22.54;48.02
6938;BME280;40040;42.706;23.372;2022-10-16T13:12:42;149768.28;;;22.68;44.75